Time;durP1;ratioP1;P1;durP2;ratioP2;P2;SDS_P1;SDS_P2;PMS_P1;PMS_P2;Temp;Humidity;BMP_temperature;BMP_pressure;BME280_temperature;BME280_humidity;BME280_pressure;Samples;Min_cycle;Max_cycle;Signal;HPM_P1;HPM_P2
2024/04/18 00:00:01;;;;;;;5.70;4.55;;;;;;;5.67;100.00;91679.72;5483495;26;20898;-76
2024/04/18 00:02:26;;;;;;;7.28;5.35;;;;;;;5.57;100.00;91703.16;5483347;26;19994;-76
2024/04/18 00:04:51;;;;;;;6.82;5.20;;;;;;;5.18;100.00;91680.53;5483403;26;20002;-76
2024/04/18 00:07:17;;;;;;;5.50;3.92;;;;;;;5.10;100.00;91685.13;5472683;26;20370;-76
2024/04/18 00:09:42;;;;;;;6.43;4.60;;;;;;;5.22;100.00;91729.22;5475514;26;20071;-75
2024/04/18 00:12:08;;;;;;;6.50;5.40;;;;;;;5.30;100.00;91726.41;5478824;26;20009;-75
2024/04/18 00:14:33;;;;;;;4.90;4.18;;;;;;;4.72;100.00;91674.94;5483520;26;20006;-76
2024/04/18 00:16:59;;;;;;;8.05;5.78;;;;;;;4.99;100.00;91712.06;5479063;26;19999;-75
2024/04/18 00:19:24;;;;;;;8.60;5.85;;;;;;;4.84;100.00;91687.75;5482587;26;20057;-76
2024/04/18 00:21:50;;;;;;;6.25;4.95;;;;;;;4.88;100.00;91714.34;5479359;26;20010;-76
2024/04/18 00:24:15;;;;;;;5.07;3.95;;;;;;;4.50;100.00;91690.59;5481487;26;19998;-75
2024/04/18 00:26:41;;;;;;;5.15;4.10;;;;;;;4.58;100.00;91659.03;5472096;26;20445;-75
2024/04/18 00:29:06;;;;;;;4.28;3.70;;;;;;;4.32;100.00;91620.19;5481554;26;20002;-75
2024/04/18 00:31:32;;;;;;;5.15;3.85;;;;;;;5.10;100.00;91716.47;5479039;26;19998;-77
2024/04/18 00:33:57;;;;;;;6.10;3.97;;;;;;;5.24;100.00;91714.53;5480753;26;20308;-76
2024/04/18 00:36:23;;;;;;;5.35;4.32;;;;;;;5.60;100.00;91709.59;5483438;26;20428;-75
2024/04/18 00:38:48;;;;;;;5.22;4.00;;;;;;;5.50;100.00;91697.38;5478251;26;19998;-76
2024/04/18 00:41:14;;;;;;;4.50;3.58;;;;;;;5.14;100.00;91660.81;5483298;26;20013;-76
2024/04/18 00:43:39;;;;;;;5.32;3.72;;;;;;;5.56;100.00;91691.41;5473316;26;19995;-76
2024/04/18 00:46:06;;;;;;;5.60;3.80;;;;;;;5.50;100.00;91669.34;5481645;26;20002;-76
2024/04/18 00:48:32;;;;;;;5.53;4.15;;;;;;;5.03;100.00;91596.13;5477930;26;19998;-74
2024/04/18 00:51:00;;;;;;;;;;;;;;;5.95;100.00;91703.81;5482718;26;20396;-75
2024/04/18 00:53:26;;;;;;;5.18;3.63;;;;;;;5.87;100.00;91681.97;5482574;26;19924;-75
2024/04/18 00:55:53;;;;;;;5.03;3.72;;;;;;;6.17;100.00;91705.91;5474553;26;19994;-75
2024/04/18 00:58:18;;;;;;;4.60;3.40;;;;;;;5.64;100.00;91634.28;5479010;26;19994;-75
2024/04/18 01:00:47;;;;;;;5.25;3.78;;;;;;;6.04;100.00;91689.03;5480493;26;20038;-75
2024/04/18 01:03:13;;;;;;;3.67;2.90;;;;;;;6.15;100.00;91700.22;5469493;26;19998;-76
2024/04/18 01:05:39;;;;;;;5.07;3.55;;;;;;;6.21;100.00;91716.44;5480030;26;20431;-77
2024/04/18 01:08:05;;;;;;;4.68;2.97;;;;;;;5.56;100.00;91676.13;5472195;26;20004;-77
2024/04/18 01:10:30;;;;;;;4.00;3.15;;;;;;;5.65;100.00;91673.28;5479713;26;19998;-77
2024/04/18 01:13:00;;;;;;;4.05;3.13;;;;;;;5.58;100.00;91681.00;5481366;26;19994;-76
2024/04/18 01:15:26;;;;;;;4.15;3.17;;;;;;;5.65;100.00;91742.81;5478092;26;19994;-75
2024/04/18 01:17:52;;;;;;;4.63;3.58;;;;;;;5.32;100.00;91710.94;5467550;26;20001;-76
2024/04/18 01:20:22;;;;;;;4.05;3.45;;;;;;;4.33;100.00;91631.91;5475083;26;20010;-77
2024/04/18 01:22:48;;;;;;;3.63;2.70;;;;;;;4.26;100.00;91664.25;5467883;26;20013;-76
2024/04/18 01:25:13;;;;;;;4.65;3.28;;;;;;;4.18;100.00;91657.66;5467815;26;20407;-77
2024/04/18 01:27:39;;;;;;;3.75;2.90;;;;;;;4.20;100.00;91648.06;5480130;26;19994;-77
2024/04/18 01:30:05;;;;;;;4.88;3.80;;;;;;;3.72;100.00;91650.22;5476138;26;19998;-77
2024/04/18 01:32:34;;;;;;;4.32;3.63;;;;;;;4.21;100.00;91708.06;5475024;26;20056;-77
2024/04/18 01:34:59;;;;;;;4.35;3.58;;;;;;;4.46;100.00;91691.25;5479820;26;19998;-76
2024/04/18 01:37:25;;;;;;;4.65;3.47;;;;;;;4.30;100.00;91682.41;5477790;26;20018;-76
2024/04/18 01:39:51;;;;;;;5.15;4.18;;;;;;;4.25;100.00;91648.22;5481704;26;19994;-75
2024/04/18 01:42:16;;;;;;;4.65;3.78;;;;;;;4.47;100.00;91657.19;5477663;26;20419;-75
2024/04/18 01:44:43;;;;;;;4.57;3.88;;;;;;;4.20;100.00;91620.09;5478916;26;20414;-76
2024/04/18 01:47:08;;;;;;;4.30;3.55;;;;;;;4.65;100.00;91669.16;5478749;26;20002;-76
2024/04/18 01:49:34;;;;;;;4.45;3.38;;;;;;;5.12;100.00;91709.38;5473346;26;20002;-76
2024/04/18 01:51:59;;;;;;;4.50;3.40;;;;;;;4.81;100.00;91704.22;5479147;26;20434;-76
2024/04/18 01:54:25;;;;;;;3.85;3.20;;;;;;;5.02;100.00;91704.00;5480974;26;20006;-76
2024/04/18 01:56:50;;;;;;;4.43;3.05;;;;;;;4.71;100.00;91680.28;5481810;26;20002;-76
2024/04/18 01:59:16;;;;;;;4.82;3.40;;;;;;;4.06;100.00;91591.50;5475533;26;19995;-76
2024/04/18 02:01:41;;;;;;;4.68;3.20;;;;;;;5.01;100.00;91684.63;5471785;26;20099;-75
2024/04/18 02:04:07;;;;;;;4.40;3.60;;;;;;;4.84;100.00;91703.00;5471804;26;20006;-75
2024/04/18 02:06:32;;;;;;;5.13;3.60;;;;;;;5.05;100.00;91739.22;5480942;26;20340;-76
2024/04/18 02:08:57;;;;;;;5.15;3.80;;;;;;;5.05;100.00;91741.75;5474033;26;20017;-76
2024/04/18 02:11:23;;;;;;;4.82;4.00;;;;;;;4.79;100.00;91695.25;5473830;26;20010;-76
2024/04/18 02:13:48;;;;;;;4.88;3.53;;;;;;;4.40;100.00;91670.00;5481957;26;20009;-76
2024/04/18 02:16:14;;;;;;;5.30;4.00;;;;;;;4.95;100.00;91732.84;5473145;26;20013;-75
2024/04/18 02:18:39;;;;;;;5.07;4.07;;;;;;;5.07;100.00;91697.31;5476686;26;20070;-76
2024/04/18 02:21:05;;;;;;;5.25;4.03;;;;;;;5.31;100.00;91727.97;5478095;26;20350;-77
2024/04/18 02:23:30;;;;;;;4.75;3.83;;;;;;;5.57;100.00;91727.84;5476983;26;20010;-76
2024/04/18 02:25:56;;;;;;;5.25;4.15;;;;;;;5.69;100.00;91727.91;5480264;26;19990;-76
2024/04/18 02:28:21;;;;;;;4.07;3.35;;;;;;;5.66;100.00;91744.41;5473849;26;20003;-77
2024/04/18 02:30:47;;;;;;;5.85;4.10;;;;;;;5.67;100.00;91724.78;5472151;26;20013;-76
2024/04/18 02:33:14;;;;;;;5.50;4.35;;;;;;;5.73;100.00;91732.34;5473959;26;20046;-76
2024/04/18 02:35:39;;;;;;;4.78;3.88;;;;;;;5.15;100.00;91631.81;5478240;26;19998;-76
2024/04/18 02:38:05;;;;;;;4.07;3.38;;;;;;;5.51;100.00;91691.28;5475070;26;20349;-76
2024/04/18 02:40:30;;;;;;;4.75;3.55;;;;;;;5.66;100.00;91735.97;5480066;26;20006;-76
2024/04/18 02:42:55;;;;;;;5.60;4.05;;;;;;;5.46;100.00;91686.06;5481509;26;19998;-75
2024/04/18 02:45:21;;;;;;;4.90;3.60;;;;;;;5.95;100.00;91738.72;5480966;26;20050;-76
2024/04/18 02:47:46;;;;;;;5.22;3.53;;;;;;;5.27;100.00;91632.63;5474258;26;20430;-77
2024/04/18 02:50:12;;;;;;;5.15;3.78;;;;;;;6.08;100.00;91743.69;5481056;26;20018;-77
2024/04/18 02:52:37;;;;;;;5.60;4.03;;;;;;;5.88;100.00;91713.34;5473104;26;19998;-77
2024/04/18 02:55:03;;;;;;;4.95;4.03;;;;;;;5.92;100.00;91737.38;5469238;26;20120;-78
2024/04/18 02:57:29;;;;;;;5.60;4.35;;;;;;;6.13;100.00;91745.56;5477768;26;20002;-78
2024/04/18 02:59:57;;;;;;;8.38;5.60;;;;;;;5.41;100.00;91729.22;5479201;26;20091;-78
2024/04/18 03:02:24;;;;;;;9.02;5.22;;;;;;;5.03;100.00;91693.63;5480035;26;20012;-78
2024/04/18 03:04:49;;;;;;;5.68;4.25;;;;;;;4.86;100.00;91645.06;5474709;26;20002;-77
2024/04/18 03:07:15;;;;;;;6.35;4.80;;;;;;;5.36;100.00;91732.41;5481361;26;19998;-78
2024/04/18 03:09:40;;;;;;;5.38;4.13;;;;;;;5.45;100.00;91748.94;5468372;26;20061;-77
2024/04/18 03:12:06;;;;;;;5.60;4.45;;;;;;;5.41;100.00;91716.50;5465599;26;20352;-76
2024/04/18 03:14:31;;;;;;;5.80;4.40;;;;;;;5.70;100.00;91752.38;5473828;26;20002;-76
2024/04/18 03:16:57;;;;;;;5.00;4.28;;;;;;;5.66;100.00;91721.47;5468913;26;20073;-77
2024/04/18 03:19:22;;;;;;;5.38;4.25;;;;;;;5.69;100.00;91721.03;5477767;26;20334;-77
2024/04/18 03:21:48;;;;;;;5.82;4.80;;;;;;;5.43;100.00;91681.41;5480881;26;19994;-77
2024/04/18 03:24:21;;;;;;;6.15;4.80;;;;;;;5.12;100.00;91706.03;5473260;26;20084;-77
2024/04/18 03:26:51;;;;;;;6.32;4.85;;;;;;;5.06;100.00;91730.59;5475648;26;20009;-77
2024/04/18 03:29:19;;;;;;;7.13;5.30;;;;;;;5.31;100.00;91743.25;5476599;26;20013;-77
2024/04/18 03:31:51;;;;;;;8.20;6.40;;;;;;;5.14;100.00;91734.63;5478413;26;19998;-77
2024/04/18 03:34:16;;;;;;;8.70;6.03;;;;;;;5.48;100.00;91737.56;5472083;26;20030;-77
2024/04/18 03:36:51;;;;;;;7.68;6.43;;;;;;;4.64;100.00;91622.59;5483919;26;20010;-77
2024/04/18 03:39:18;;;;;;;6.53;5.53;;;;;;;5.10;100.00;91743.66;5477792;26;19998;-77
2024/04/18 03:41:49;;;;;;;6.15;5.07;;;;;;;4.89;100.00;91768.53;5476994;26;20458;-77
2024/04/18 03:44:15;;;;;;;7.07;5.65;;;;;;;4.50;100.00;91710.19;5474899;26;20002;-77
2024/04/18 03:46:40;;;;;;;7.22;5.97;;;;;;;4.78;100.00;91765.69;5481155;26;19997;-77
2024/04/18 03:49:07;;;;;;;15.07;10.35;;;;;;;4.62;100.00;91713.59;5483346;26;19994;-77
2024/04/18 03:51:34;;;;;;;9.98;7.35;;;;;;;4.85;100.00;91757.22;5483778;26;20442;-77
2024/04/18 03:54:00;;;;;;;7.30;5.45;;;;;;;5.05;100.00;91769.75;5474704;26;20015;-77
2024/04/18 03:56:25;;;;;;;7.95;4.60;;;;;;;4.90;100.00;91739.53;5474470;26;20002;-77
2024/04/18 03:58:52;;;;;;;6.60;4.88;;;;;;;5.26;100.00;91773.66;5478836;26;20010;-77
2024/04/18 04:01:18;;;;;;;5.93;4.32;;;;;;;5.38;100.00;91752.56;5480581;26;20048;-77
2024/04/18 04:03:44;;;;;;;5.78;4.65;;;;;;;5.73;100.00;91780.75;5475756;26;20006;-77
2024/04/18 04:06:09;;;;;;;5.18;4.57;;;;;;;5.92;100.00;91783.25;5479250;26;20010;-77
2024/04/18 04:08:35;;;;;;;5.70;4.38;;;;;;;5.89;100.00;91781.91;5481931;26;20004;-77
2024/04/18 04:11:00;;;;;;;6.43;4.07;;;;;;;5.57;100.00;91794.88;5476475;26;20009;-77
2024/04/18 04:13:26;;;;;;;5.65;4.78;;;;;;;5.80;100.00;91808.72;5475367;26;20010;-77
2024/04/18 04:15:51;;;;;;;5.85;4.32;;;;;;;5.75;100.00;91793.28;5476617;26;20017;-77
2024/04/18 04:18:17;;;;;;;6.22;4.85;;;;;;;6.00;100.00;91810.22;5479831;26;20003;-77
2024/04/18 04:20:43;;;;;;;6.07;4.90;;;;;;;5.52;100.00;91778.66;5481737;26;20338;-77
2024/04/18 04:23:09;;;;;;;6.95;4.75;;;;;;;6.04;100.00;91836.06;5478586;26;19998;-76
2024/04/18 04:25:34;;;;;;;7.13;4.75;;;;;;;5.98;100.00;91824.97;5476922;26;20009;-76
2024/04/18 04:28:00;;;;;;;6.80;5.32;;;;;;;5.83;100.00;91798.06;5490250;26;20006;-76
2024/04/18 04:30:25;;;;;;;6.63;4.82;;;;;;;6.19;100.00;91828.03;5485707;25;19998;-76
2024/04/18 04:32:51;;;;;;;6.30;5.25;;;;;;;5.96;100.00;91784.38;5475455;26;20011;-76
2024/04/18 04:35:16;;;;;;;6.97;5.22;;;;;;;6.21;100.00;91808.97;5482500;26;20006;-76
2024/04/18 04:37:42;;;;;;;6.57;4.95;;;;;;;5.71;100.00;91815.88;5483518;26;20072;-77
2024/04/18 04:40:07;;;;;;;6.60;5.22;;;;;;;6.02;100.00;91831.19;5483548;26;19990;-76
2024/04/18 04:42:33;;;;;;;7.72;4.75;;;;;;;6.28;100.00;91844.59;5485788;26;20012;-76
2024/04/18 04:44:59;;;;;;;6.90;5.00;;;;;;;6.22;100.00;91861.56;5489886;25;20092;-76
2024/04/18 04:47:24;;;;;;;6.63;5.07;;;;;;;5.89;100.00;91822.69;5491041;26;20340;-76
2024/04/18 04:49:50;;;;;;;7.15;5.07;;;;;;;5.97;100.00;91824.16;5492029;26;19993;-76
2024/04/18 04:52:15;;;;;;;6.32;4.75;;;;;;;5.96;100.00;91802.22;5504967;25;20458;-77
2024/04/18 04:54:42;;;;;;;6.30;4.72;;;;;;;6.42;100.00;91837.53;5485623;26;20490;-77
2024/04/18 04:57:08;;;;;;;6.97;4.95;;;;;;;6.37;100.00;91828.00;5502665;25;20390;-77
2024/04/18 04:59:34;;;;;;;7.75;5.00;;;;;;;6.81;100.00;91875.47;5492102;26;20013;-78
2024/04/18 05:01:59;;;;;;;7.13;5.20;;;;;;;6.68;100.00;91869.53;5489907;26;20002;-77
2024/04/18 05:04:25;;;;;;;6.30;5.25;;;;;;;6.01;100.00;91759.03;5489916;26;20527;-78
2024/04/18 05:06:50;;;;;;;5.90;4.70;;;;;;;6.77;100.00;91885.31;5484640;26;20002;-78
2024/04/18 05:09:17;;;;;;;8.48;4.65;;;;;;;6.72;100.00;91867.34;5500678;26;19997;-78
2024/04/18 05:11:42;;;;;;;7.50;4.80;;;;;;;6.56;100.00;91886.59;5501983;26;20330;-78
2024/04/18 05:14:08;;;;;;;6.50;5.13;;;;;;;6.37;100.00;91894.31;5483554;25;19997;-78
2024/04/18 05:16:33;;;;;;;6.43;4.90;;;;;;;6.37;100.00;91890.97;5506438;26;20068;-77
2024/04/18 05:18:58;;;;;;;5.90;4.85;;;;;;;6.42;100.00;91873.25;5515238;25;19998;-77
2024/04/18 05:21:24;;;;;;;8.23;5.70;;;;;;;6.63;100.00;91889.06;5490635;25;20346;-77
2024/04/18 05:23:49;;;;;;;7.07;5.43;;;;;;;6.76;100.00;91890.66;5493397;26;19998;-77
2024/04/18 05:26:15;;;;;;;7.30;5.40;;;;;;;6.77;100.00;91882.75;5510252;26;20001;-77
2024/04/18 05:28:41;;;;;;;7.38;5.53;;;;;;;6.18;100.00;91776.28;5503605;25;20076;-77
2024/04/18 05:31:07;;;;;;;;;;;;;;;7.17;100.00;91911.25;5495469;26;20018;-78
2024/04/18 05:33:33;;;;;;;6.68;5.20;;;;;;;6.68;100.00;91859.34;5484066;26;20442;-77
2024/04/18 05:35:59;;;;;;;6.55;5.28;;;;;;;6.26;100.00;91849.16;5507489;26;20473;-77
2024/04/18 05:38:25;;;;;;;7.65;5.43;;;;;;;6.51;100.00;91864.31;5482866;25;20009;-77
2024/04/18 05:40:51;;;;;;;6.20;4.88;;;;;;;6.48;100.00;91880.03;5499042;25;20001;-78
2024/04/18 05:43:17;;;;;;;5.57;4.63;;;;;;;5.87;100.00;91890.94;5481124;26;21267;-77
2024/04/18 05:45:47;;;;;;;6.32;4.63;;;;;;;5.86;100.00;91904.69;5507393;26;19993;-77
2024/04/18 05:48:13;;;;;;;8.35;4.82;;;;;;;6.00;100.00;91915.50;5487658;26;20013;-77
2024/04/18 05:50:38;;;;;;;6.85;4.78;;;;;;;5.87;100.00;91901.13;5512130;25;20641;-77
2024/04/18 05:53:04;;;;;;;7.88;5.10;;;;;;;5.71;100.00;91891.50;5491730;25;20005;-78
2024/04/18 05:55:30;;;;;;;8.65;5.75;;;;;;;5.55;100.00;91868.16;5488389;26;20009;-77
2024/04/18 05:57:55;;;;;;;6.97;5.60;;;;;;;5.48;100.00;91873.31;5501587;26;19997;-78
2024/04/18 06:00:21;;;;;;;8.88;5.88;;;;;;;6.01;100.00;91908.63;5504234;26;20122;-78
2024/04/18 06:02:46;;;;;;;9.80;6.47;;;;;;;6.19;100.00;91868.84;5494659;26;20001;-78
2024/04/18 06:05:11;;;;;;;7.63;5.95;;;;;;;6.18;100.00;91850.22;5498390;25;20394;-78
2024/04/18 06:07:37;;;;;;;7.28;5.15;;;;;;;6.60;100.00;91863.97;5498048;25;20012;-78
2024/04/18 06:10:03;;;;;;;6.90;6.03;;;;;;;6.95;100.00;91876.81;5496870;26;20005;-78
2024/04/18 06:12:28;;;;;;;8.73;5.43;;;;;;;7.17;100.00;91865.31;5490681;25;20714;-77
2024/04/18 06:14:54;;;;;;;11.45;5.40;;;;;;;6.73;100.00;91782.13;5482171;26;20074;-77
2024/04/18 06:17:19;;;;;;;12.93;6.15;;;;;;;7.55;100.00;91858.94;5497560;26;20756;-78
2024/04/18 06:19:49;;;;;;;11.23;7.47;;;;;;;8.01;100.00;91894.09;5492312;26;20070;-77
2024/04/18 06:22:14;;;;;;;10.05;6.45;;;;;;;7.51;100.00;91793.97;5507907;26;20005;-77
2024/04/18 06:24:41;;;;;;;9.88;7.25;;;;;;;8.22;100.00;91872.25;5495749;26;20546;-78
2024/04/18 06:27:07;;;;;;;9.57;6.40;;;;;;;8.40;100.00;91896.88;5492835;25;19997;-78
2024/04/18 06:29:32;;;;;;;;;;;;;;;8.54;100.00;91894.84;5484926;25;20009;-78
2024/04/18 06:31:58;;;;;;;9.18;6.45;;;;;;;8.73;100.00;91920.25;5487832;26;20350;-77
2024/04/18 06:34:23;;;;;;;9.35;6.75;;;;;;;8.69;100.00;91937.06;5501311;26;20020;-78
2024/04/18 06:36:49;;;;;;;8.82;6.03;;;;;;;8.37;100.00;91887.09;5494044;25;20074;-77
2024/04/18 06:39:14;;;;;;;8.90;6.10;;;;;;;8.97;100.00;91947.53;5487212;26;20430;-78
2024/04/18 06:41:40;;;;;;;9.27;5.90;;;;;;;8.81;100.00;91937.03;5498076;26;20002;-77
2024/04/18 06:44:06;;;;;;;6.65;4.18;;;;;;;8.69;100.00;91903.78;5480661;25;20342;-77
2024/04/18 06:46:32;;;;;;;8.23;4.90;;;;;;;8.51;100.00;91867.13;5510936;26;20057;-77
2024/04/18 06:48:57;;;;;;;6.97;4.75;;;;;;;7.65;96.89;91914.59;5499171;25;19998;-78
2024/04/18 06:51:23;;;;;;;9.82;4.50;;;;;;;7.95;100.00;91941.78;5493891;26;20001;-77
2024/04/18 06:53:48;;;;;;;6.90;4.70;;;;;;;7.64;100.00;91928.38;5512045;25;20005;-78
2024/04/18 06:56:14;;;;;;;7.88;5.20;;;;;;;7.86;100.00;91946.47;5509911;25;20085;-78
2024/04/18 06:58:39;;;;;;;7.45;4.70;;;;;;;8.21;100.00;91951.75;5489676;25;20010;-77
2024/04/18 07:01:05;;;;;;;7.15;4.40;;;;;;;7.57;97.18;91927.72;5494654;25;19994;-78
2024/04/18 07:03:30;;;;;;;6.35;4.03;;;;;;;7.98;100.00;91927.78;5499017;25;20445;-77
2024/04/18 07:05:56;;;;;;;5.30;4.22;;;;;;;7.95;100.00;91959.69;5503223;25;20086;-77
2024/04/18 07:08:24;;;;;;;5.53;3.75;;;;;;;7.84;100.00;91951.06;5478939;26;20315;-77
2024/04/18 07:10:50;;;;;;;7.40;3.97;;;;;;;7.49;100.00;91918.59;5489845;25;20855;-77
2024/04/18 07:13:15;;;;;;;8.05;3.80;;;;;;;7.85;100.00;91931.34;5484660;26;20008;-77
2024/04/18 07:15:41;;;;;;;6.72;3.78;;;;;;;8.24;100.00;91929.06;5497044;26;19991;-76
2024/04/18 07:18:06;;;;;;;5.03;2.90;;;;;;;8.46;97.36;91974.50;5489853;26;20055;-76
2024/04/18 07:20:32;;;;;;;4.05;2.97;;;;;;;8.37;96.20;91976.66;5495008;26;20009;-76
2024/04/18 07:22:57;;;;;;;5.78;2.97;;;;;;;8.23;98.22;91945.41;5496344;25;20012;-76
2024/04/18 07:25:23;;;;;;;4.78;3.17;;;;;;;8.12;96.63;91964.13;5506193;25;20464;-77
2024/04/18 07:27:48;;;;;;;6.05;3.47;;;;;;;8.58;100.00;91979.63;5501177;26;20041;-76
2024/04/18 07:30:15;;;;;;;8.20;4.50;;;;;;;8.76;100.00;91955.63;5513705;25;20073;-76
2024/04/18 07:32:41;;;;;;;6.00;3.03;;;;;;;8.79;100.00;91996.13;5497495;26;19993;-76
2024/04/18 07:35:07;;;;;;;27.23;24.33;;;;;;;8.07;93.65;91938.44;5498885;25;20002;-76
2024/04/18 07:37:32;;;;;;;4.50;3.65;;;;;;;7.66;94.03;91948.59;5492813;26;20005;-76
2024/04/18 07:40:00;;;;;;;6.43;4.22;;;;;;;8.01;100.00;91975.94;5490808;26;20449;-76
2024/04/18 07:42:26;;;;;;;6.28;4.10;;;;;;;8.21;100.00;91944.88;5499974;26;20066;-76
2024/04/18 07:44:51;;;;;;;4.13;2.97;;;;;;;8.07;99.66;91953.78;5510517;26;19997;-76
2024/04/18 07:47:17;;;;;;;5.63;3.08;;;;;;;8.38;94.25;92003.78;5499791;25;20455;-76
2024/04/18 07:49:42;;;;;;;3.92;3.15;;;;;;;7.01;96.06;91917.78;5494453;26;20005;-77
2024/04/18 07:52:11;;;;;;;4.55;3.13;;;;;;;7.47;98.44;91959.72;5506767;26;20361;-76
2024/04/18 07:54:37;;;;;;;3.95;2.85;;;;;;;7.82;99.85;92003.41;5502412;26;20009;-77
2024/04/18 07:57:03;;;;;;;4.60;3.50;;;;;;;8.15;100.00;92010.50;5501612;25;19997;-77
2024/04/18 07:59:28;;;;;;;5.25;3.67;;;;;;;7.68;95.66;91983.16;5489534;26;20002;-77
2024/04/18 08:01:53;;;;;;;4.88;3.53;;;;;;;7.77;97.21;92018.63;5492876;26;19993;-77
2024/04/18 08:04:19;;;;;;;4.53;3.22;;;;;;;7.78;96.50;92027.84;5490136;26;20073;-76
2024/04/18 08:06:44;;;;;;;3.53;2.28;;;;;;;7.67;93.11;92014.03;5488083;25;20322;-76
2024/04/18 08:09:10;;;;;;;6.03;3.55;;;;;;;7.73;91.93;91993.50;5502568;25;20006;-76
2024/04/18 08:11:35;;;;;;;4.00;2.17;;;;;;;7.94;91.59;92011.06;5496710;25;20006;-75
2024/04/18 08:14:01;;;;;;;11.32;5.97;;;;;;;7.33;88.27;91971.13;5499228;25;20298;-76
2024/04/18 08:16:27;;;;;;;7.10;3.63;;;;;;;7.99;96.72;92004.28;5492647;25;19994;-76
2024/04/18 08:18:52;;;;;;;3.22;2.67;;;;;;;8.46;95.01;92025.69;5495026;26;20432;-76
2024/04/18 08:21:18;;;;;;;5.05;2.92;;;;;;;7.35;90.17;91918.03;5506669;25;20534;-76
2024/04/18 08:23:51;;;;;;;3.78;2.58;;;;;;;8.13;88.83;92037.28;5495893;26;20006;-76
2024/04/18 08:26:16;;;;;;;6.07;3.83;;;;;;;8.00;86.90;91995.59;5494066;25;20029;-76
2024/04/18 08:28:42;;;;;;;5.07;3.65;;;;;;;8.19;93.47;91998.03;5489193;25;19998;-76
2024/04/18 08:31:08;;;;;;;4.32;2.55;;;;;;;8.35;90.66;92009.38;5486114;26;20074;-75
2024/04/18 08:33:33;;;;;;;3.67;2.53;;;;;;;8.94;94.20;92033.28;5486695;26;20017;-76
2024/04/18 08:35:59;;;;;;;3.75;2.72;;;;;;;8.46;86.46;92017.25;5508517;25;20002;-76
2024/04/18 08:38:24;;;;;;;3.67;2.40;;;;;;;8.00;88.46;91966.69;5487704;26;20553;-76
2024/04/18 08:40:51;;;;;;;3.50;2.83;;;;;;;8.53;87.30;92057.06;5491048;26;20030;-76
2024/04/18 08:43:16;;;;;;;5.82;2.60;;;;;;;8.71;90.54;92046.91;5486932;25;20452;-76
2024/04/18 08:45:43;;;;;;;3.33;2.60;;;;;;;8.22;86.04;92023.16;5511214;26;20002;-76
2024/04/18 08:48:10;;;;;;;3.38;2.60;;;;;;;8.48;89.03;92044.13;5491968;26;20410;-76
2024/04/18 08:50:40;;;;;;;3.53;2.00;;;;;;;8.13;86.67;92042.41;5487643;26;20016;-76
2024/04/18 08:53:06;;;;;;;4.78;2.72;;;;;;;8.41;87.57;92043.50;5485167;26;20038;-76
2024/04/18 08:55:35;;;;;;;3.92;2.40;;;;;;;8.64;88.00;92029.91;5492239;26;19999;-77
2024/04/18 08:58:10;;;;;;;3.72;2.50;;;;;;;8.89;89.76;92031.38;5493933;26;20009;-76
2024/04/18 09:00:41;;;;;;;2.90;2.10;;;;;;;9.15;84.63;92061.81;5497610;26;20073;-76
2024/04/18 09:03:07;;;;;;;7.40;3.22;;;;;;;8.51;84.41;92043.69;5506964;25;20368;-76
2024/04/18 09:05:33;;;;;;;6.63;3.10;;;;;;;8.40;87.37;92062.41;5492400;26;20026;-76
2024/04/18 09:07:58;;;;;;;4.00;2.30;;;;;;;8.51;86.97;92063.38;5500351;26;20677;-76
2024/04/18 09:10:24;;;;;;;3.63;2.38;;;;;;;8.76;87.37;92063.19;5493320;26;20040;-75
2024/04/18 09:12:52;;;;;;;5.78;4.13;;;;;;;9.02;87.77;92060.31;5489813;26;20330;-75
2024/04/18 09:15:18;;;;;;;5.30;2.97;;;;;;;9.29;93.54;92018.75;5500622;25;20009;-76
2024/04/18 09:17:44;;;;;;;5.78;3.30;;;;;;;9.72;92.92;92011.50;5488022;26;20016;-76
2024/04/18 09:20:09;;;;;;;6.65;3.05;;;;;;;10.03;82.59;92053.75;5488757;26;20008;-76
2024/04/18 09:22:35;;;;;;;6.93;2.88;;;;;;;9.98;78.57;92028.03;5493441;26;20335;-76
2024/04/18 09:25:01;;;;;;;8.70;3.70;;;;;;;10.46;87.64;92012.22;5490807;25;20517;-76
2024/04/18 09:27:26;;;;;;;4.38;2.60;;;;;;;10.58;80.88;92060.13;5488945;26;20008;-76
2024/04/18 09:29:52;;;;;;;3.63;2.55;;;;;;;9.99;78.44;92055.22;5491815;26;20067;-76
2024/04/18 09:32:18;;;;;;;4.47;2.97;;;;;;;10.13;82.57;92035.16;5484788;26;19993;-76
2024/04/18 09:34:49;;;;;;;4.57;2.63;;;;;;;9.88;83.51;92056.88;5489327;26;20338;-76
2024/04/18 09:37:15;;;;;;;3.00;2.40;;;;;;;9.97;78.82;92028.25;5496311;25;20001;-76
2024/04/18 09:39:42;;;;;;;;;;;;;;;9.55;77.70;92078.13;5494524;26;20397;-76
2024/04/18 09:42:16;;;;;;;2.90;2.30;;;;;;;8.99;80.00;92082.03;5485744;26;21479;-76
2024/04/18 09:44:43;;;;;;;3.17;2.40;;;;;;;8.47;80.33;92073.31;5480913;26;20004;-76
2024/04/18 09:47:09;;;;;;;3.58;2.60;;;;;;;8.74;82.19;92054.94;5512412;26;20054;-76
2024/04/18 09:49:36;;;;;;;3.72;3.30;;;;;;;8.94;86.11;92067.34;5511530;25;20013;-76
2024/04/18 09:52:02;;;;;;;4.78;3.35;;;;;;;9.25;84.87;92069.69;5487991;26;20516;-76
2024/04/18 09:54:28;;;;;;;3.05;2.10;;;;;;;8.42;76.46;92016.91;5492819;26;19994;-76
2024/04/18 09:56:56;;;;;;;2.90;2.15;;;;;;;8.28;78.84;91958.31;5508322;26;20333;-76
2024/04/18 09:59:22;;;;;;;3.17;2.40;;;;;;;8.66;79.02;92032.25;5506900;26;20065;-75
2024/04/18 10:01:48;;;;;;;3.55;2.42;;;;;;;9.03;82.18;92059.31;5491047;26;20045;-76
2024/04/18 10:04:14;;;;;;;3.58;2.65;;;;;;;9.45;78.79;92061.56;5501054;26;19997;-76
2024/04/18 10:06:43;;;;;;;3.53;2.42;;;;;;;9.73;80.25;92069.47;5512802;25;20342;-76
2024/04/18 10:09:09;;;;;;;4.53;2.30;;;;;;;9.39;76.76;92038.66;5485834;25;19994;-76
2024/04/18 10:11:36;;;;;;;6.72;2.50;;;;;;;9.75;77.10;92050.25;5499805;25;20046;-75
2024/04/18 10:14:02;;;;;;;3.45;2.50;;;;;;;9.46;79.57;91947.78;5492053;26;20144;-76
2024/04/18 10:16:28;;;;;;;;;;;;;;;10.46;78.35;92058.44;5479105;26;20000;-76
2024/04/18 10:18:54;;;;;;;3.85;2.08;;;;;;;9.32;72.56;92018.28;5478439;26;19924;-76
2024/04/18 10:21:22;;;;;;;2.92;2.00;;;;;;;10.01;74.69;92062.69;5478683;26;20010;-76
2024/04/18 10:24:01;;;;;;;3.25;2.20;;;;;;;10.00;73.09;92074.72;5490604;26;20002;-76
2024/04/18 10:26:31;;;;;;;3.38;2.10;;;;;;;9.91;74.21;92054.84;5486929;26;20055;-76
2024/04/18 10:28:57;;;;;;;3.20;1.80;;;;;;;9.71;74.51;92059.44;5478226;26;20009;-76
2024/04/18 10:31:27;;;;;;;4.20;2.40;;;;;;;9.59;76.91;92062.03;5489118;26;19990;-77
2024/04/18 10:33:55;;;;;;;2.90;1.30;;;;;;;9.69;75.49;92064.00;5492347;26;19997;-77
2024/04/18 10:36:31;;;;;;;3.60;1.65;;;;;;;9.76;73.29;92066.41;5490723;25;20379;-76
2024/04/18 10:38:57;;;;;;;3.90;1.92;;;;;;;9.40;70.58;92025.59;5498329;25;20462;-76
2024/04/18 10:41:24;;;;;;;5.72;2.35;;;;;;;10.13;77.28;92070.28;5486711;26;20034;-77
2024/04/18 10:43:50;;;;;;;4.72;2.50;;;;;;;10.14;74.13;92069.31;5483102;26;20349;-76
2024/04/18 10:46:18;;;;;;;4.40;2.25;;;;;;;9.87;73.93;92039.16;5489921;26;19990;-76
2024/04/18 10:48:43;;;;;;;3.42;2.38;;;;;;;9.67;74.67;92042.94;5496380;26;20013;-75
2024/04/18 10:51:09;;;;;;;4.25;2.10;;;;;;;9.70;74.77;92031.44;5492992;26;20001;-76
2024/04/18 10:53:37;;;;;;;3.97;2.33;;;;;;;9.39;74.07;92048.91;5489364;26;20001;-76
2024/04/18 10:56:04;;;;;;;2.85;2.42;;;;;;;9.42;72.79;92040.75;5491037;25;21131;-76
2024/04/18 10:58:29;;;;;;;;;;;;;;;10.12;77.26;92089.28;5489136;26;20031;-76
2024/04/18 11:00:59;;;;;;;3.05;2.03;;;;;;;10.13;75.21;92078.00;5487535;26;19931;-76
2024/04/18 11:03:28;;;;;;;2.85;1.77;;;;;;;9.98;71.93;92048.53;5495769;26;19997;-76
2024/04/18 11:05:55;;;;;;;3.33;2.70;;;;;;;10.34;73.74;92084.22;5487753;26;19998;-76
2024/04/18 11:08:21;;;;;;;2.83;1.75;;;;;;;10.23;72.28;92087.66;5492301;26;20471;-76
2024/04/18 11:10:47;;;;;;;3.67;1.95;;;;;;;10.44;71.16;92088.72;5486151;26;20067;-75
2024/04/18 11:13:15;;;;;;;3.53;1.73;;;;;;;9.58;71.02;91970.75;5486284;26;20002;-75
2024/04/18 11:15:41;;;;;;;4.72;2.17;;;;;;;10.16;69.02;92062.13;5504938;26;19994;-75
2024/04/18 11:18:07;;;;;;;3.25;1.65;;;;;;;9.73;69.04;92067.66;5495341;25;20335;-75
2024/04/18 11:20:34;;;;;;;9.57;4.78;;;;;;;10.07;69.48;92087.41;5504363;26;20013;-75
2024/04/18 11:22:59;;;;;;;8.13;4.15;;;;;;;10.35;72.42;92079.84;5496817;25;19994;-75
2024/04/18 11:25:26;;;;;;;7.32;3.83;;;;;;;10.25;70.13;92067.63;5501157;25;20437;-74
2024/04/18 11:27:52;;;;;;;3.15;1.60;;;;;;;10.19;67.33;92114.78;5513187;26;19993;-75
2024/04/18 11:30:19;;;;;;;2.53;1.83;;;;;;;9.95;68.88;92114.94;5506308;26;20009;-75